createdAt,value
2023-06-14T00:00:13.414Z,96497.06
2023-06-14T00:02:42.811Z,96501.16
2023-06-14T00:05:13.358Z,96499.31
2023-06-14T00:07:44.726Z,96501.44
2023-06-14T00:10:15.054Z,96492.56
2023-06-14T00:12:43.987Z,96496.72
2023-06-14T00:15:12.630Z,96491.69
2023-06-14T00:17:41.588Z,96496.06
2023-06-14T00:20:11.528Z,96501.75
2023-06-14T00:22:40.120Z,96498.38
2023-06-14T00:25:19.832Z,96495.50
2023-06-14T00:27:54.441Z,96490.16
2023-06-14T00:30:23.337Z,96489.84
2023-06-14T00:32:52.655Z,96485.50
2023-06-14T00:35:21.727Z,96491.06
2023-06-14T00:37:50.143Z,96489.84
2023-06-14T00:40:18.903Z,96490.56
2023-06-14T00:42:47.984Z,96492.41
2023-06-14T00:45:18.231Z,96495.69
2023-06-14T00:47:49.853Z,96490.91
2023-06-14T00:50:19.073Z,96483.72
2023-06-14T00:52:48.012Z,96491.41
2023-06-14T00:55:16.721Z,96481.75
2023-06-14T00:57:45.363Z,96485.81
2023-06-14T01:00:18.030Z,96483.63
2023-06-14T01:02:46.752Z,96484.25
2023-06-14T01:05:16.225Z,96486.81
2023-06-14T01:08:04.229Z,96484.84
2023-06-14T01:10:43.644Z,96490.53
2023-06-14T01:13:20.815Z,96489.91
2023-06-14T01:15:53.061Z,96493.19
2023-06-14T01:18:21.735Z,96483.44
2023-06-14T01:20:51.536Z,96487.06
2023-06-14T01:23:23.640Z,96491.16
2023-06-14T01:25:54.316Z,96493.69
2023-06-14T01:28:24.131Z,96490.69
2023-06-14T01:30:56.682Z,96496.06
2023-06-14T01:33:30.124Z,96496.00
2023-06-14T01:36:01.871Z,96492.59
2023-06-14T01:38:35.069Z,96494.28
2023-06-14T01:41:04.716Z,96490.34
2023-06-14T01:43:35.074Z,96496.63
2023-06-14T01:46:08.539Z,96497.59
2023-06-14T01:48:37.991Z,96492.63
2023-06-14T01:51:06.755Z,96492.78
2023-06-14T01:53:37.322Z,96487.44
2023-06-14T01:56:06.391Z,96488.13
2023-06-14T01:58:35.055Z,96487.59
2023-06-14T02:01:03.921Z,96488.44
2023-06-14T02:03:32.513Z,96482.97
2023-06-14T02:06:02.094Z,96489.41
2023-06-14T02:08:30.490Z,96490.19
2023-06-14T02:11:00.543Z,96492.38
2023-06-14T02:13:29.657Z,96489.31
2023-06-14T02:15:58.372Z,96487.59
2023-06-14T02:18:27.339Z,96494.44
2023-06-14T02:20:56.439Z,96484.16
2023-06-14T02:23:25.087Z,96494.53
2023-06-14T02:25:53.907Z,96495.22
2023-06-14T02:28:24.312Z,96490.38
2023-06-14T02:30:52.667Z,96496.78
2023-06-14T02:33:26.453Z,96495.13
2023-06-14T02:35:55.202Z,96488.75
2023-06-14T02:38:23.892Z,96485.34
2023-06-14T02:40:52.456Z,96493.13
2023-06-14T02:43:23.149Z,96491.63
2023-06-14T02:45:51.859Z,96494.44
2023-06-14T02:48:20.918Z,96502.31
2023-06-14T02:50:49.744Z,96497.78
2023-06-14T02:53:18.381Z,96497.97
2023-06-14T02:55:48.038Z,96497.78
2023-06-14T02:58:17.489Z,96500.94
2023-06-14T03:00:47.942Z,96491.59
2023-06-14T03:03:17.579Z,96496.31
2023-06-14T03:05:53.540Z,96495.63
2023-06-14T03:08:28.445Z,96492.97
2023-06-14T03:11:03.326Z,96496.41
2023-06-14T03:13:33.363Z,96494.69
2023-06-14T03:16:04.318Z,96499.03
2023-06-14T03:18:36.759Z,96498.47
2023-06-14T03:21:07.347Z,96493.13
2023-06-14T03:23:36.291Z,96497.47
2023-06-14T03:26:06.379Z,96507.84
2023-06-14T03:28:35.680Z,96504.84
2023-06-14T03:31:05.946Z,96507.28
2023-06-14T03:33:35.377Z,96510.59
2023-06-14T03:36:04.713Z,96511.94
2023-06-14T03:38:34.214Z,96518.09
2023-06-14T03:41:03.943Z,96521.28
2023-06-14T03:43:32.394Z,96525.84
2023-06-14T03:46:01.059Z,96520.72
2023-06-14T03:48:33.041Z,96524.38
2023-06-14T03:51:02.101Z,96529.81
2023-06-14T03:53:31.881Z,96524.56
2023-06-14T03:56:01.396Z,96532.00
2023-06-14T03:58:39.153Z,96547.53
2023-06-14T04:01:08.796Z,96541.69
2023-06-14T04:03:38.702Z,96541.56
2023-06-14T04:06:08.872Z,96543.16
2023-06-14T04:08:37.595Z,96549.53
2023-06-14T04:11:05.924Z,96557.06
2023-06-14T04:13:36.318Z,96555.63
2023-06-14T04:16:06.547Z,96555.56
2023-06-14T04:18:38.782Z,96551.34
2023-06-14T04:21:09.533Z,96554.41
2023-06-14T04:23:39.263Z,96559.38
2023-06-14T04:26:07.978Z,96560.03
2023-06-14T04:28:41.972Z,96556.16
2023-06-14T04:31:12.740Z,96559.72
2023-06-14T04:33:46.661Z,96558.31
2023-06-14T04:36:20.074Z,96562.75
2023-06-14T04:38:55.314Z,96559.19
2023-06-14T04:41:31.873Z,96561.84
2023-06-14T04:44:02.779Z,96566.72
2023-06-14T04:46:46.952Z,96567.78
2023-06-14T04:49:20.816Z,96565.59
2023-06-14T04:51:52.133Z,96569.47
2023-06-14T04:54:20.942Z,96570.88
2023-06-14T04:56:50.046Z,96573.63
2023-06-14T04:59:19.217Z,96573.13
2023-06-14T05:01:49.319Z,96576.44
2023-06-14T05:04:18.697Z,96581.03
2023-06-14T05:06:49.276Z,96575.22
2023-06-14T05:09:18.317Z,96578.66
2023-06-14T05:11:48.596Z,96581.34
2023-06-14T05:14:17.693Z,96583.22
2023-06-14T05:16:47.172Z,96581.72
2023-06-14T05:19:15.795Z,96580.28
2023-06-14T05:21:44.434Z,96584.75
2023-06-14T05:24:14.542Z,96586.13
2023-06-14T05:26:43.369Z,96582.06
2023-06-14T05:29:11.680Z,96589.72
2023-06-14T05:31:40.468Z,96589.22
2023-06-14T05:34:09.037Z,96591.94
2023-06-14T05:36:38.117Z,96593.84
2023-06-14T05:39:07.844Z,96606.09
2023-06-14T05:41:37.611Z,96610.19
2023-06-14T05:44:06.409Z,96606.56
2023-06-14T05:46:35.232Z,96618.03
2023-06-14T05:49:04.000Z,96617.94
2023-06-14T05:51:32.762Z,96613.25
2023-06-14T05:54:01.474Z,96618.75
2023-06-14T05:56:30.172Z,96606.94
2023-06-14T05:59:00.083Z,96614.97
2023-06-14T06:01:29.014Z,96611.41
2023-06-14T06:03:58.208Z,96615.41
2023-06-14T06:06:27.575Z,96611.00
2023-06-14T06:08:56.191Z,96617.22
2023-06-14T06:11:24.872Z,96619.59
2023-06-14T06:13:53.206Z,96621.31
2023-06-14T06:16:22.869Z,96624.53
2023-06-14T06:18:51.216Z,96628.16
2023-06-14T06:21:19.632Z,96624.56
2023-06-14T06:23:48.277Z,96621.41
2023-06-14T06:26:16.949Z,96621.75
2023-06-14T06:28:45.823Z,96634.47
2023-06-14T06:31:14.294Z,96626.53
2023-06-14T06:33:43.966Z,96645.91
2023-06-14T06:36:13.002Z,96644.53
2023-06-14T06:38:41.919Z,96645.63
2023-06-14T06:41:10.546Z,96640.81
2023-06-14T06:43:38.822Z,96639.78
2023-06-14T06:46:07.619Z,96641.50
2023-06-14T06:48:36.530Z,96641.66
2023-06-14T06:51:06.683Z,96655.56
2023-06-14T06:53:41.987Z,96651.03
2023-06-14T06:56:13.642Z,96649.66
2023-06-14T06:58:42.248Z,96653.63
2023-06-14T07:01:11.160Z,96658.84
2023-06-14T07:03:40.073Z,96662.81
2023-06-14T07:06:09.869Z,96652.44
2023-06-14T07:08:39.742Z,96659.50
2023-06-14T07:11:08.394Z,96660.94
2023-06-14T07:13:37.055Z,96664.22
2023-06-14T07:16:08.761Z,96666.19
2023-06-14T07:18:38.566Z,96663.66
2023-06-14T07:21:07.179Z,96660.75
2023-06-14T07:23:37.167Z,96675.56
2023-06-14T07:26:06.973Z,96675.44
2023-06-14T07:28:36.336Z,96674.78
2023-06-14T07:31:04.719Z,96677.94
2023-06-14T07:33:33.193Z,96678.31
2023-06-14T07:36:01.579Z,96685.56
2023-06-14T07:38:30.531Z,96688.94
2023-06-14T07:41:00.278Z,96686.91
2023-06-14T07:43:28.555Z,96688.00
2023-06-14T07:46:07.074Z,96691.94
2023-06-14T07:48:36.955Z,96692.19
2023-06-14T07:51:05.555Z,96689.81
2023-06-14T07:53:34.002Z,96692.09
2023-06-14T07:56:04.183Z,96699.03
2023-06-14T07:58:32.559Z,96699.66
2023-06-14T08:01:03.042Z,96701.13
2023-06-14T08:03:31.874Z,96692.22
2023-06-14T08:06:01.812Z,96700.53
2023-06-14T08:08:30.234Z,96699.66
2023-06-14T08:10:58.991Z,96707.59
2023-06-14T08:13:28.600Z,96703.13
2023-06-14T08:15:58.451Z,96700.81
2023-06-14T08:18:26.988Z,96704.78
2023-06-14T08:20:55.517Z,96705.09
2023-06-14T08:23:25.008Z,96701.59
2023-06-14T08:25:53.839Z,96703.66
2023-06-14T08:28:22.620Z,96714.34
2023-06-14T08:30:52.551Z,96704.09
2023-06-14T08:33:20.935Z,96705.91
2023-06-14T08:35:50.008Z,96710.69
2023-06-14T08:38:18.623Z,96716.75
2023-06-14T08:40:52.506Z,96719.72
2023-06-14T08:43:21.477Z,96721.09
2023-06-14T08:45:59.012Z,96720.31
2023-06-14T08:48:29.217Z,96723.94
2023-06-14T08:51:02.998Z,96718.75
2023-06-14T08:53:36.730Z,96726.06
2023-06-14T08:56:09.059Z,96731.88
2023-06-14T08:58:39.273Z,96728.63
2023-06-14T09:01:10.348Z,96725.38
2023-06-14T09:03:42.043Z,96726.09
2023-06-14T09:06:14.351Z,96717.22
2023-06-14T09:08:45.932Z,96722.53
2023-06-14T09:11:15.424Z,96723.81
2023-06-14T09:13:44.537Z,96727.84
2023-06-14T09:16:14.352Z,96722.88
2023-06-14T09:18:45.385Z,96722.91
2023-06-14T09:21:14.402Z,96722.13
2023-06-14T09:23:44.493Z,96728.31
2023-06-14T09:26:14.438Z,96725.22
2023-06-14T09:28:47.031Z,96721.69
2023-06-14T09:31:19.214Z,96721.81
2023-06-14T09:33:51.710Z,96725.84
2023-06-14T09:36:23.482Z,96728.78
2023-06-14T09:38:55.730Z,96733.34
2023-06-14T09:41:33.985Z,96726.03
2023-06-14T09:44:07.459Z,96723.81
2023-06-14T09:46:40.360Z,96730.22
2023-06-14T09:49:09.898Z,96734.81
2023-06-14T09:51:47.256Z,96733.44
2023-06-14T09:54:22.751Z,96727.94
2023-06-14T09:56:53.129Z,96726.72
2023-06-14T09:59:33.037Z,96726.22
2023-06-14T10:02:11.982Z,96724.34
2023-06-14T10:04:47.253Z,96723.84
2023-06-14T10:07:21.928Z,96723.78
2023-06-14T10:09:51.487Z,96730.75
2023-06-14T10:12:22.003Z,96722.47
2023-06-14T10:14:55.984Z,96732.78
2023-06-14T10:17:42.222Z,96725.09
2023-06-14T10:20:27.967Z,96723.66
2023-06-14T10:23:05.875Z,96717.00
2023-06-14T10:25:35.637Z,96715.72
2023-06-14T10:28:19.104Z,96721.09
2023-06-14T10:31:08.516Z,96721.81
2023-06-14T10:33:43.886Z,96725.34
2023-06-14T10:36:31.563Z,96725.69
2023-06-14T10:39:02.112Z,96720.59
2023-06-14T10:41:31.914Z,96717.16
2023-06-14T10:44:41.783Z,96718.84
2023-06-14T10:47:14.041Z,96714.41
2023-06-14T10:49:46.892Z,96716.53
2023-06-14T10:52:20.601Z,96714.91
2023-06-14T10:55:12.494Z,96709.34
2023-06-14T11:00:23.204Z,96708.69
2023-06-14T11:03:46.790Z,96706.44
2023-06-14T11:06:25.289Z,96701.06
2023-06-14T11:09:39.055Z,96707.63
2023-06-14T11:12:12.883Z,96699.38
2023-06-14T11:14:41.770Z,96697.66
2023-06-14T11:17:10.482Z,96708.75
2023-06-14T11:19:38.780Z,96700.13
2023-06-14T11:22:08.734Z,96704.56
2023-06-14T11:24:37.910Z,96697.41
2023-06-14T11:27:07.506Z,96700.97
2023-06-14T11:29:36.409Z,96703.13
2023-06-14T11:32:08.438Z,96698.91
2023-06-14T11:34:37.069Z,96709.41
2023-06-14T11:37:06.076Z,96707.84
2023-06-14T11:39:37.733Z,96703.34
2023-06-14T11:42:07.267Z,96700.16
2023-06-14T11:44:35.927Z,96699.13
2023-06-14T11:47:06.980Z,96703.00
2023-06-14T11:49:38.301Z,96698.28
2023-06-14T11:52:07.441Z,96700.97
2023-06-14T11:54:37.644Z,96696.09
2023-06-14T11:57:08.392Z,96692.13
2023-06-14T11:59:41.133Z,96691.81
2023-06-14T12:02:10.161Z,96688.59
2023-06-14T12:04:38.949Z,96682.31
2023-06-14T12:07:16.260Z,96691.50
2023-06-14T12:10:09.017Z,96692.88
2023-06-14T12:12:40.107Z,96688.03
2023-06-14T12:15:12.517Z,96690.69
2023-06-14T12:17:43.070Z,96683.13
2023-06-14T12:20:15.370Z,96686.69
2023-06-14T12:22:53.946Z,96682.41
2023-06-14T12:25:35.288Z,96678.28
2023-06-14T12:28:08.995Z,96672.59
2023-06-14T12:30:39.368Z,96673.59
2023-06-14T12:33:08.826Z,96675.53
2023-06-14T12:35:37.331Z,96681.94
2023-06-14T12:38:05.986Z,96678.97
2023-06-14T12:40:36.687Z,96681.03
2023-06-14T12:43:05.352Z,96684.31
2023-06-14T12:45:33.629Z,96679.66
2023-06-14T12:48:02.490Z,96683.22
2023-06-14T12:50:31.550Z,96679.56
2023-06-14T12:53:00.486Z,96676.41
2023-06-14T12:55:28.798Z,96683.28
2023-06-14T12:57:58.493Z,96668.78
2023-06-14T13:00:27.872Z,96690.81
2023-06-14T13:02:56.583Z,96688.88
2023-06-14T13:05:24.980Z,96684.53
2023-06-14T13:07:53.885Z,96685.34
2023-06-14T13:10:22.184Z,96684.19
2023-06-14T13:12:50.867Z,96675.78
2023-06-14T13:15:21.171Z,96690.66
2023-06-14T13:17:50.229Z,96687.31
2023-06-14T13:20:20.496Z,96686.66
2023-06-14T13:22:49.520Z,96686.75
2023-06-14T13:25:17.801Z,96679.56
2023-06-14T13:27:46.541Z,96689.84
2023-06-14T13:30:16.322Z,96685.94
2023-06-14T13:32:48.623Z,96683.03
2023-06-14T13:35:19.248Z,96683.13
2023-06-14T13:37:47.882Z,96679.88
2023-06-14T13:40:16.968Z,96679.66
2023-06-14T13:42:46.026Z,96677.59
2023-06-14T13:45:15.476Z,96674.91
2023-06-14T13:47:45.925Z,96679.78
2023-06-14T13:50:14.816Z,96684.28
2023-06-14T13:52:43.647Z,96677.47
2023-06-14T13:55:12.149Z,96677.31
2023-06-14T13:57:40.604Z,96681.88
2023-06-14T14:00:10.697Z,96680.09
2023-06-14T14:02:42.066Z,96671.41
2023-06-14T14:05:12.290Z,96671.28
2023-06-14T14:07:40.616Z,96684.97
2023-06-14T14:10:10.927Z,96666.59
2023-06-14T14:12:39.932Z,96666.25
2023-06-14T14:15:14.064Z,96669.97
2023-06-14T14:17:43.042Z,96670.09
2023-06-14T14:20:16.762Z,96665.75
2023-06-14T14:22:45.503Z,96665.28
2023-06-14T14:25:13.844Z,96661.38
2023-06-14T14:27:42.592Z,96658.56
2023-06-14T14:30:12.191Z,96661.47
2023-06-14T14:32:40.582Z,96662.72
2023-06-14T14:35:10.554Z,96662.78
2023-06-14T14:37:40.201Z,96666.75
2023-06-14T14:40:11.652Z,96673.63
2023-06-14T14:42:40.015Z,96670.66
2023-06-14T14:45:09.906Z,96672.84
2023-06-14T14:47:38.527Z,96666.81
2023-06-14T14:50:09.877Z,96679.53
2023-06-14T14:52:39.642Z,96681.53
2023-06-14T14:55:09.854Z,96673.31
2023-06-14T14:57:38.520Z,96673.84
2023-06-14T15:00:09.101Z,96676.94
2023-06-14T15:02:37.587Z,96681.41
2023-06-14T15:05:06.389Z,96669.78
2023-06-14T15:07:35.251Z,96674.09
2023-06-14T15:10:08.088Z,96671.56
2023-06-14T15:12:37.266Z,96666.97
2023-06-14T15:15:06.950Z,96676.69
2023-06-14T15:17:35.552Z,96672.53
2023-06-14T15:20:04.770Z,96668.50
2023-06-14T15:22:33.120Z,96671.63
2023-06-14T15:25:04.677Z,96674.97
2023-06-14T15:27:34.627Z,96684.75
2023-06-14T15:30:04.512Z,96669.69
2023-06-14T15:32:32.893Z,96667.22
2023-06-14T15:35:01.200Z,96675.28
2023-06-14T15:37:29.496Z,96681.25
2023-06-14T15:39:57.861Z,96681.03
2023-06-14T15:42:27.315Z,96677.38
2023-06-14T15:44:57.254Z,96676.69
2023-06-14T15:47:26.370Z,96669.81
2023-06-14T15:49:54.962Z,96672.28
2023-06-14T15:52:25.279Z,96673.53
2023-06-14T15:54:53.892Z,96669.56
2023-06-14T15:57:23.095Z,96669.03
2023-06-14T15:59:51.727Z,96668.31
2023-06-14T16:02:21.501Z,96673.34
2023-06-14T16:04:53.416Z,96673.72
2023-06-14T16:07:21.869Z,96666.16
2023-06-14T16:09:50.489Z,96669.69
2023-06-14T16:12:18.800Z,96672.59
2023-06-14T16:14:47.379Z,96672.22
2023-06-14T16:17:15.969Z,96668.56
2023-06-14T16:19:45.667Z,96680.09
2023-06-14T16:22:14.316Z,96669.91
2023-06-14T16:24:42.934Z,96670.22
2023-06-14T16:27:13.525Z,96676.56
2023-06-14T16:29:42.713Z,96675.25
2023-06-14T16:32:12.313Z,96676.38
2023-06-14T16:34:40.999Z,96672.97
2023-06-14T16:37:10.723Z,96671.97
2023-06-14T16:39:39.075Z,96685.19
2023-06-14T16:42:08.342Z,96693.41
2023-06-14T16:44:36.933Z,96685.72
2023-06-14T16:47:07.441Z,96688.16
2023-06-14T16:49:36.178Z,96694.59
2023-06-14T16:52:04.970Z,96687.28
2023-06-14T16:54:34.710Z,96689.97
2023-06-14T16:57:03.062Z,96694.28
2023-06-14T16:59:31.785Z,96703.69
2023-06-14T17:02:06.336Z,96708.63
2023-06-14T17:04:35.449Z,96703.16
2023-06-14T17:07:05.487Z,96702.22
2023-06-14T17:09:35.220Z,96704.84
2023-06-14T17:12:03.955Z,96707.78
2023-06-14T17:14:32.237Z,96714.25
2023-06-14T17:17:01.333Z,96707.13
2023-06-14T17:19:29.677Z,96718.28
2023-06-14T17:21:59.176Z,96716.91
2023-06-14T17:24:27.576Z,96720.59
2023-06-14T17:26:57.910Z,96716.63
2023-06-14T17:29:27.579Z,96722.75
2023-06-14T17:31:56.294Z,96721.06
2023-06-14T17:34:24.609Z,96725.88
2023-06-14T17:36:52.972Z,96733.06
2023-06-14T17:39:21.691Z,96730.63
2023-06-14T17:41:50.389Z,96735.44
2023-06-14T17:44:20.155Z,96726.34
2023-06-14T17:46:48.780Z,96733.13
2023-06-14T17:49:17.848Z,96732.91
2023-06-14T17:51:46.409Z,96740.06
2023-06-14T17:54:15.054Z,96748.03
2023-06-14T17:56:44.281Z,96753.72
2023-06-14T17:59:12.989Z,96747.00
2023-06-14T18:01:42.992Z,96752.97
2023-06-14T18:04:11.781Z,96758.09
2023-06-14T18:06:40.159Z,96750.63
2023-06-14T18:09:08.819Z,96753.81
2023-06-14T18:11:37.458Z,96752.25
2023-06-14T18:14:06.158Z,96753.06
2023-06-14T18:16:35.799Z,96751.88
2023-06-14T18:19:05.772Z,96756.69
2023-06-14T18:21:34.327Z,96765.84
2023-06-14T18:24:04.059Z,96763.47
2023-06-14T18:26:32.727Z,96768.59
2023-06-14T18:29:01.588Z,96764.25
2023-06-14T18:31:30.350Z,96770.19
2023-06-14T18:33:59.080Z,96774.13
2023-06-14T18:36:29.073Z,96768.97
2023-06-14T18:38:57.948Z,96768.56
2023-06-14T18:41:26.800Z,96768.94
2023-06-14T18:43:55.434Z,96777.66
2023-06-14T18:46:25.253Z,96778.44
2023-06-14T18:48:54.110Z,96780.41
2023-06-14T18:51:22.839Z,96785.97
2023-06-14T18:53:52.822Z,96782.31
2023-06-14T18:56:22.295Z,96783.81
2023-06-14T18:58:50.640Z,96783.09
2023-06-14T19:01:19.337Z,96785.31
2023-06-14T19:03:47.986Z,96790.78
2023-06-14T19:06:16.735Z,96798.25
2023-06-14T19:08:47.998Z,96794.16
2023-06-14T19:11:17.691Z,96791.69
2023-06-14T19:13:46.478Z,96796.44
2023-06-14T19:16:15.109Z,96801.56
2023-06-14T19:18:43.936Z,96803.53
2023-06-14T19:21:12.989Z,96799.13
2023-06-14T19:23:42.566Z,96811.28
2023-06-14T19:26:11.258Z,96814.53
2023-06-14T19:28:40.879Z,96809.41
2023-06-14T19:31:09.497Z,96810.88
2023-06-14T19:33:37.833Z,96820.31
2023-06-14T19:36:06.649Z,96817.06
2023-06-14T19:38:35.485Z,96819.34
2023-06-14T19:41:04.322Z,96816.84
2023-06-14T19:43:32.572Z,96825.50
2023-06-14T19:46:02.323Z,96824.25
2023-06-14T19:48:30.699Z,96830.50
2023-06-14T19:50:59.376Z,96836.81
2023-06-14T19:53:28.120Z,96841.53
2023-06-14T19:55:56.840Z,96840.75
2023-06-14T19:58:25.543Z,96842.31
2023-06-14T20:00:53.882Z,96851.41
2023-06-14T20:03:23.754Z,96844.66
2023-06-14T20:05:54.547Z,96859.19
2023-06-14T20:08:25.065Z,96852.81
2023-06-14T20:10:53.662Z,96854.25
2023-06-14T20:13:22.200Z,96853.47
2023-06-14T20:15:51.048Z,96860.13
2023-06-14T20:18:19.352Z,96860.03
2023-06-14T20:20:52.420Z,96855.22
2023-06-14T20:23:21.212Z,96861.56
2023-06-14T20:25:52.084Z,96857.84
2023-06-14T20:28:21.306Z,96854.28
2023-06-14T20:30:49.893Z,96861.34
2023-06-14T20:33:18.509Z,96862.25
2023-06-14T20:35:48.611Z,96865.97
2023-06-14T20:38:17.170Z,96868.03
2023-06-14T20:40:47.910Z,96871.72
2023-06-14T20:43:16.924Z,96870.31
2023-06-14T20:45:45.548Z,96863.63
2023-06-14T20:48:14.299Z,96860.69
2023-06-14T20:50:43.233Z,96873.41
2023-06-14T20:53:12.944Z,96873.16
2023-06-14T20:55:41.835Z,96865.63
2023-06-14T20:58:10.430Z,96868.63
2023-06-14T21:00:40.880Z,96868.25
2023-06-14T21:03:09.571Z,96867.38
2023-06-14T21:05:38.272Z,96866.13
2023-06-14T21:08:06.941Z,96863.56
2023-06-14T21:10:36.970Z,96861.91
2023-06-14T21:13:05.873Z,96870.91
2023-06-14T21:15:34.724Z,96865.69
2023-06-14T21:18:03.311Z,96869.34
2023-06-14T21:20:32.031Z,96859.63
2023-06-14T21:23:00.621Z,96863.94
2023-06-14T21:25:29.198Z,96863.00
2023-06-14T21:27:58.881Z,96873.56
2023-06-14T21:30:35.797Z,96874.66
2023-06-14T21:33:05.066Z,96870.84
2023-06-14T21:35:33.682Z,96880.47
2023-06-14T21:38:02.127Z,96864.88
2023-06-14T21:40:30.969Z,96878.94
2023-06-14T21:43:01.053Z,96876.63
2023-06-14T21:45:29.673Z,96878.81
2023-06-14T21:47:58.410Z,96875.69
2023-06-14T21:50:27.686Z,96893.13
2023-06-14T21:52:55.951Z,96888.47
2023-06-14T21:55:26.528Z,96881.91
2023-06-14T21:57:55.145Z,96882.06
2023-06-14T22:00:25.950Z,96889.31
2023-06-14T22:02:54.496Z,96886.91
2023-06-14T22:05:23.176Z,96889.38
2023-06-14T22:07:52.102Z,96888.00
2023-06-14T22:10:21.303Z,96885.41
2023-06-14T22:12:52.694Z,96896.28
2023-06-14T22:15:21.381Z,96885.78
2023-06-14T22:17:53.120Z,96887.25
2023-06-14T22:20:21.847Z,96886.00
2023-06-14T22:22:50.983Z,96892.34
2023-06-14T22:25:19.833Z,96886.47
2023-06-14T22:27:48.512Z,96891.81
2023-06-14T22:30:18.389Z,96891.97
2023-06-14T22:32:48.530Z,96885.50
2023-06-14T22:35:19.585Z,96892.69
2023-06-14T22:37:48.605Z,96896.94
2023-06-14T22:40:18.102Z,96891.84
2023-06-14T22:42:49.793Z,96897.63
2023-06-14T22:45:24.947Z,96897.31
2023-06-14T22:47:55.540Z,96897.06
2023-06-14T22:50:25.657Z,96899.84
2023-06-14T22:52:54.513Z,96897.00
2023-06-14T22:55:27.357Z,96902.31
2023-06-14T22:57:56.390Z,96901.06
2023-06-14T23:00:25.078Z,96898.19
2023-06-14T23:02:53.422Z,96898.47
2023-06-14T23:05:22.229Z,96888.31
2023-06-14T23:07:53.139Z,96896.94
2023-06-14T23:10:24.403Z,96891.69
2023-06-14T23:12:53.074Z,96893.72
2023-06-14T23:15:21.383Z,96891.03
2023-06-14T23:17:51.640Z,96886.16
2023-06-14T23:20:21.418Z,96892.34
2023-06-14T23:22:53.131Z,96888.69
2023-06-14T23:25:21.808Z,96885.00
2023-06-14T23:27:50.978Z,96882.69
2023-06-14T23:30:19.778Z,96893.84
2023-06-14T23:32:50.071Z,96888.09
2023-06-14T23:35:19.996Z,96888.69
2023-06-14T23:37:49.053Z,96887.81
2023-06-14T23:40:19.153Z,96888.81
2023-06-14T23:42:51.898Z,96885.34
2023-06-14T23:45:20.709Z,96888.47
2023-06-14T23:47:49.502Z,96877.19
2023-06-14T23:50:18.145Z,96883.13
2023-06-14T23:52:46.802Z,96883.25
2023-06-14T23:55:21.268Z,96881.63
2023-06-14T23:57:51.627Z,96884.94
